Flight Track Log - Related Links

Times and Time Zones

All times are in EDT time to prevent confusion due to time zone crossing. See the SWA3206 flight status page for this flight to view local times or setup timezone preferences in your user account.

Time Position Orientation Groundspeed Altitude Reporting Facility
EDT Latitude Longitude Course Direction KTS MPH feet Rate Location/Type
Fri 10:13:29 PM 33.4333 -112.0333 270° West 163 188 2,100  Level Phoenix TRACON
Fri 10:14:59 PM 33.4333 -112.1333 270° West 228 262 4,200 1,444 Climbing Phoenix TRACON
Fri 10:15:17 PM 33.4367 -112.1550 280° West 199 229 4,700 2,734 Climbing Albuquerque Center
Fri 10:16:18 PM 33.4939 -112.1981 328° Northwest 279 321 7,800 3,295 Climbing Albuquerque Center
Fri 10:17:19 PM 33.5308 -112.1183 61° Northeast 290 334 11,400 3,541 Climbing Albuquerque Center
Fri 10:18:20 PM 33.5483 -112.0233 78° East 295 339 15,000 2,683 Climbing Albuquerque Center
Fri 10:19:22 PM 33.5683 -111.9200 77° East 314 361 16,900 2,293 Climbing Albuquerque Center
Fri 10:20:23 PM 33.5886 -111.8067 78° East 343 395 19,700 2,557 Climbing Albuquerque Center
Fri 10:21:24 PM 33.6108 -111.6906 77° East 355 409 22,100 2,311 Climbing Albuquerque Center
Fri 10:22:25 PM 33.6250 -111.5675 82° East 376 433 24,400 1,902 Climbing Albuquerque Center
Fri 10:23:27 PM 33.6472 -111.4164 80° East 398 458 26,000 1,512 Climbing Albuquerque Center
Fri 10:24:28 PM 33.6847 -111.2831 71° East 420 483 27,500 1,623 Climbing Albuquerque Center
Fri 10:25:29 PM 33.7303 -111.1492 68° East 432 497 29,300 2,115 Climbing Albuquerque Center
Fri 10:26:30 PM 33.7778 -111.0164 67° East 435 501 31,800 2,311 Climbing Albuquerque Center
Fri 10:27:31 PM 33.8242 -110.8889 66° East 425 489 34,000 1,561 Climbing Albuquerque Center
Fri 10:28:33 PM 33.8678 -110.7639 67° East 413 475 35,000 488 Climbing Albuquerque Center
Fri 10:29:34 PM 33.9117 -110.6364 67° East 414 476 35,000  Level Albuquerque Center
Fri 10:30:35 PM 33.9572 -110.5078 67° East 416 479 35,000  Level Albuquerque Center
Fri 10:31:36 PM 34.0094 -110.3589 67° East 420 483 35,000  Level Albuquerque Center
Fri 10:32:38 PM 34.0547 -110.2278 67° East 425 489 35,000  Level Albuquerque Center
Fri 10:33:39 PM 34.0989 -110.0994 67° East 421 484 35,000  Level Albuquerque Center
Fri 10:34:40 PM 34.1481 -109.9564 67° East 419 482 35,000  Level Albuquerque Center
Fri 10:35:41 PM 34.1914 -109.8325 67° East 418 481 35,000  Level Albuquerque Center
Fri 10:36:42 PM 34.2408 -109.6861 68° East 421 484 35,000  Level Albuquerque Center
Fri 10:37:44 PM 34.2836 -109.5617 67° East 421 484 35,000  Level Albuquerque Center
Fri 10:38:45 PM 34.3256 -109.4356 68° East 421 484 35,000  Level Albuquerque Center
Fri 10:39:46 PM 34.3747 -109.2894 68° East 421 484 35,000  Level Albuquerque Center
Fri 10:40:47 PM 34.4183 -109.1639 67° East 423 487 35,000  Level Albuquerque Center
Fri 10:41:48 PM 34.4708 -109.0186 66° East 422 486 35,000  Level Albuquerque Center
Fri 10:42:49 PM 34.5153 -108.8931 67° East 423 487 35,000  Level Albuquerque Center
Fri 10:43:51 PM 34.5597 -108.7672 67° East 424 488 35,000 98 Level Albuquerque Center
Fri 10:44:52 PM 34.6111 -108.6178 67° East 428 493 35,200 885 Climbing Albuquerque Center
Fri 10:45:53 PM 34.6553 -108.4922 67° East 427 491 36,800 885 Climbing Albuquerque Center
Fri 10:46:54 PM 34.6964 -108.3708 68° East 420 483 37,000 98 Climbing Albuquerque Center
Fri 10:47:55 PM 34.7433 -108.2389 67° East 425 489 37,000  Level Albuquerque Center
Fri 10:48:57 PM 34.7889 -108.1047 68° East 428 493 37,000  Level Albuquerque Center
Fri 10:49:58 PM 34.8436 -107.9433 68° East 430 495 37,000  Level Albuquerque Center
Fri 10:50:59 PM 34.8903 -107.8086 67° East 432 497 37,000 344 Level Albuquerque Center
Fri 10:52:00 PM 34.9361 -107.6719 68° East 434 499 37,700 689 Climbing Albuquerque Center
Fri 10:53:01 PM 34.9819 -107.5344 68° East 436 502 38,400 639 Climbing Albuquerque Center
Fri 10:54:02 PM 35.0297 -107.3947 67° East 442 509 39,000 293 Climbing Albuquerque Center
Fri 10:55:04 PM 35.0764 -107.2528 68° East 447 514 39,000  Level Albuquerque Center
Fri 10:56:05 PM 35.1269 -107.1033 67° East 452 520 39,000  Level Albuquerque Center
Fri 10:57:06 PM 35.1717 -106.9683 68° East 449 517 39,000  Level Albuquerque Center
Fri 10:58:07 PM 35.2219 -106.8114 69° East 445 512 39,000  Level Albuquerque Center
Fri 10:59:08 PM 35.2642 -106.6764 69° East 445 512 39,000  Level Albuquerque Center
Fri 11:00:09 PM 35.3056 -106.5436 69° East 441 507 39,000  Level Albuquerque Center
Fri 11:01:11 PM 35.3497 -106.3942 70° East 446 513 39,000  Level Albuquerque Center
Fri 11:02:12 PM 35.3956 -106.2531 68° East 445 512 39,000  Level Albuquerque Center
Fri 11:03:13 PM 35.4383 -106.1083 70° East 450 518 39,000  Level Albuquerque Center
Fri 11:04:14 PM 35.4828 -105.9636 69° East 452 520 39,000  Level Albuquerque Center
Fri 11:05:15 PM 35.5339 -105.7933 70° East 449 517 39,000  Level Albuquerque Center
Fri 11:06:16 PM 35.5778 -105.6458 70° East 452 520 39,000  Level Albuquerque Center
Fri 11:07:17 PM 35.6219 -105.5014 69° East 449 517 39,000  Level Albuquerque Center
Fri 11:08:18 PM 35.6647 -105.3539 70° East 452 520 39,000  Level Albuquerque Center
Fri 11:09:20 PM 35.7094 -105.2064 69° East 452 520 39,000  Level Albuquerque Center
Fri 11:10:21 PM 35.7494 -105.0619 71° East 444 511 39,000  Level Albuquerque Center
Fri 11:11:22 PM 35.7931 -104.9142 70° East 450 518 39,000  Level Albuquerque Center
Fri 11:12:23 PM 35.8367 -104.7661 70° East 453 521 39,000  Level Albuquerque Center
Fri 11:13:24 PM 35.8786 -104.6183 71° East 452 520 39,000  Level Albuquerque Center
Fri 11:14:26 PM 35.9211 -104.4708 70° East 451 519 39,000  Level Albuquerque Center
Fri 11:15:27 PM 35.9639 -104.3231 70° East 450 518 39,000  Level Albuquerque Center
Fri 11:16:28 PM 36.0064 -104.1767 70° East 449 517 39,000  Level Albuquerque Center
Fri 11:17:29 PM 36.0486 -104.0275 71° East 452 520 39,000  Level Albuquerque Center
Fri 11:18:31 PM 36.0906 -103.8794 71° East 452 520 39,000  Level Albuquerque Center
Fri 11:19:32 PM 36.1331 -103.7308 70° East 453 521 39,000  Level Albuquerque Center
Fri 11:20:33 PM 36.1753 -103.5836 70° East 450 518 39,000  Level Albuquerque Center
Fri 11:21:34 PM 36.2175 -103.4306 71° East 459 528 39,000  Level Albuquerque Center
Fri 11:22:35 PM 36.2586 -103.2794 71° East 459 528 39,000  Level Albuquerque Center
Fri 11:23:37 PM 36.2989 -103.1253 72° East 464 534 39,000  Level Albuquerque Center
Fri 11:24:38 PM 36.3414 -102.9733 71° East 463 533 39,000  Level Albuquerque Center
Fri 11:25:39 PM 36.3811 -102.8253 72° East 463 533 39,000  Level Albuquerque Center
Fri 11:26:40 PM 36.4297 -102.6453 71° East 460 529 39,000  Level Albuquerque Center
Fri 11:27:42 PM 36.4706 -102.4939 71° East 462 532 39,000  Level Albuquerque Center
Fri 11:28:43 PM 36.5111 -102.3431 71° East 460 529 39,000  Level Albuquerque Center
Fri 11:29:44 PM 36.5500 -102.1942 72° East 456 525 39,000  Level Albuquerque Center
Fri 11:30:46 PM 36.5892 -102.0442 72° East 456 525 39,000  Level Albuquerque Center
Fri 11:31:47 PM 36.6308 -101.8842 72° East 456 525 39,000  Level Albuquerque Center
Fri 11:32:48 PM 36.6686 -101.7394 72° East 458 527 39,000  Level Albuquerque Center
Fri 11:33:49 PM 36.7133 -101.5728 71° East 457 526 39,000  Level Albuquerque Center
Fri 11:34:50 PM 36.7500 -101.4278 72° East 458 527 39,000  Level Albuquerque Center
Fri 11:35:52 PM 36.7867 -101.2819 73° East 460 529 39,000  Level Albuquerque Center
Fri 11:37:00 PM 36.8262 -101.1158 73° East  Level FlightAware Approximate
Fri 11:44:00 PM 37.0655 -100.0855 73° East  Level FlightAware Approximate
Fri 11:45:00 PM 37.0990 -99.9378 74° East  Level FlightAware Approximate
Fri 11:46:00 PM 37.1340 -99.7894 73° East  Level FlightAware Approximate
Fri 11:47:00 PM 37.1687 -99.6420 74° East  Level FlightAware Approximate
Fri 11:48:00 PM 37.2031 -99.4944 74° East  Level FlightAware Approximate
Fri 11:49:00 PM 37.2374 -99.3467 74° East  Level FlightAware Approximate
Fri 11:50:00 PM 37.2714 -99.1989 74° East  Level FlightAware Approximate
Fri 11:51:00 PM 37.3053 -99.0510 74° East  Level FlightAware Approximate
Fri 11:52:00 PM 37.3390 -98.9029 74° East  Level FlightAware Approximate
Fri 11:53:00 PM 37.3726 -98.7546 74° East  Level FlightAware Approximate
Fri 11:54:00 PM 37.4059 -98.6063 74° East  Level FlightAware Approximate
Fri 11:55:00 PM 37.4390 -98.4578 74° East  Level FlightAware Approximate
Fri 11:56:00 PM 37.4720 -98.3092 74° East  Level FlightAware Approximate
Fri 11:57:00 PM 37.5048 -98.1605 74° East  Level FlightAware Approximate
Fri 11:58:00 PM 37.5374 -98.0116 75° East  Level FlightAware Approximate
Fri 11:58:22 PM 37.6122 -97.8061 75° East 472 543 39,000  Level Kansas City Center
Fri 11:59:00 PM 37.5698 -97.8626 75° East  Level FlightAware Approximate
Fri 11:59:22 PM 37.6539 -97.6167 74° East 472 543 39,000  Level Kansas City Center
Sat 12:00:00 AM 37.6025 -97.7136 74° East  Level FlightAware Approximate
Sat 12:00:23 AM 37.6883 -97.4614 74° East 469 540 39,000  Level Kansas City Center
Sat 12:01:00 AM 37.6355 -97.5647 74° East  Level FlightAware Approximate
Sat 12:01:24 AM 37.7244 -97.2986 74° East 478 550 39,000  Level Kansas City Center
Sat 12:02:00 AM 37.6683 -97.4156 74° East  Level FlightAware Approximate
Sat 12:02:25 AM 37.7589 -97.1372 75° East 477 549 39,000  Level Kansas City Center
Sat 12:03:00 AM 37.7008 -97.2664 75° East  Level FlightAware Approximate
Sat 12:03:26 AM 37.7928 -96.9764 75° East 477 549 39,000  Level Kansas City Center
Sat 12:04:27 AM 37.8278 -96.8128 75° East 481 554 39,000  Level Kansas City Center
Sat 12:05:28 AM 37.8631 -96.6489 75° East 484 557 39,000  Level Kansas City Center
Sat 12:06:28 AM 37.8972 -96.4850 75° East 483 556 39,000  Level Kansas City Center
Sat 12:07:29 AM 37.9311 -96.3192 75° East 485 558 39,000  Level Kansas City Center
Sat 12:08:30 AM 37.9658 -96.1533 75° East 486 559 39,000  Level Kansas City Center
Sat 12:09:31 AM 38.0042 -95.9617 76° East 483 556 39,000  Level Kansas City Center
Sat 12:10:32 AM 38.0358 -95.8025 76° East 486 559 39,000  Level Kansas City Center
Sat 12:11:33 AM 38.0681 -95.6450 75° East 484 557 39,000  Level Kansas City Center
Sat 12:12:34 AM 38.1047 -95.4597 76° East 486 559 39,000  Level Kansas City Center
Sat 12:13:35 AM 38.1369 -95.3000 76° East 488 562 39,000  Level Kansas City Center
Sat 12:14:35 AM 38.1681 -95.1378 76° East 492 566 39,000  Level Kansas City Center
Sat 12:15:36 AM 38.2042 -94.9503 76° East 491 565 39,000  Level Kansas City Center
Sat 12:16:37 AM 38.2353 -94.7869 76° East 494 568 39,000  Level Kansas City Center
Sat 12:17:38 AM 38.2667 -94.6256 76° East 494 568 39,000  Level Kansas City Center
Sat 12:18:39 AM 38.3014 -94.4386 77° East 492 566 39,000  Level Kansas City Center
Sat 12:19:40 AM 38.3322 -94.2772 76° East 491 565 39,000  Level Kansas City Center
Sat 12:20:41 AM 38.3672 -94.0903 77° East 490 564 39,000  Level Kansas City Center
Sat 12:21:42 AM 38.3986 -93.9219 77° East 488 562 39,000  Level Kansas City Center
Sat 12:22:43 AM 38.4289 -93.7522 77° East 488 562 39,000  Level Kansas City Center
Sat 12:23:44 AM 38.4594 -93.5847 77° East 486 559 39,000  Level Kansas City Center
Sat 12:24:44 AM 38.4897 -93.4156 77° East 486 559 39,000  Level Kansas City Center
Sat 12:25:45 AM 38.5206 -93.2467 77° East 486 559 39,000 148 Level Kansas City Center
Sat 12:26:46 AM 38.5503 -93.0775 77° East 485 558 39,300 590 Climbing Kansas City Center
Sat 12:27:47 AM 38.5806 -92.9061 77° East 489 563 40,200 836 Climbing Kansas City Center
Sat 12:28:48 AM 38.6092 -92.7358 78° East 488 562 41,000 393 Climbing Kansas City Center
Sat 12:29:49 AM 38.6372 -92.5661 78° East 486 559 41,000  Level Kansas City Center
Sat 12:30:49 AM 38.6672 -92.3953 77° East 487 560 41,000  Level Kansas City Center
Sat 12:31:50 AM 38.6942 -92.2250 78° East 485 558 41,000  Level Kansas City Center
Sat 12:32:51 AM 38.7222 -92.0556 78° East 483 556 41,000  Level Kansas City Center
Sat 12:33:52 AM 38.7511 -91.8867 78° East 483 556 41,000  Level Kansas City Center
Sat 12:34:53 AM 38.7783 -91.7164 78° East 484 557 41,000  Level Kansas City Center
Sat 12:35:53 AM 38.8061 -91.5425 78° East 485 558 41,000  Level Kansas City Center
Sat 12:36:54 AM 38.8328 -91.3733 79° East 485 558 41,000  Level Kansas City Center
Sat 12:37:55 AM 38.8603 -91.2033 78° East 486 559 41,000  Level Kansas City Center
Sat 12:38:56 AM 38.8883 -91.0306 78° East 490 564 41,000  Level Kansas City Center
Sat 12:39:56 AM 38.9158 -90.8575 78° East 492 566 41,000  Level Kansas City Center
Sat 12:40:57 AM 38.9439 -90.6839 78° East 493 567 41,000  Level Kansas City Center
Sat 12:41:58 AM 38.9703 -90.5056 79° East 499 574 41,000  Level Kansas City Center
Sat 12:42:59 AM 38.9972 -90.3269 79° East 502 578 41,000  Level Kansas City Center
Sat 12:43:59 AM 39.0236 -90.1486 79° East 503 579 41,000  Level Kansas City Center
Sat 12:45:00 AM 39.0508 -89.9625 79° East 501 577 41,000  Level Kansas City Center
Sat 12:46:01 AM 39.0786 -89.7753 79° East 496 571 41,000  Level Kansas City Center
Sat 12:47:01 AM 39.1033 -89.5986 80° East 500 575 41,000  Level Kansas City Center
Sat 12:48:02 AM 39.1286 -89.4222 79° East 500 575 41,000  Level Kansas City Center
Sat 12:49:03 AM 39.1522 -89.2464 80° East 500 575 41,000  Level Kansas City Center
Sat 12:50:03 AM 39.1758 -89.0925 79° East 503 579 41,000  Level Kansas City Center
Sat 12:51:04 AM 39.1989 -88.9172 80° East 500 575 41,000  Level Kansas City Center
Sat 12:52:05 AM 39.2244 -88.7425 79° East 497 572 41,000  Level Kansas City Center
Sat 12:53:06 AM 39.2522 -88.5478 80° East 502 578 41,000  Level Kansas City Center
Sat 12:54:06 AM 39.2736 -88.3711 81° East 499 574 41,000  Level Kansas City Center
Sat 12:55:07 AM 39.2972 -88.1928 80° East 500 575 41,000  Level Kansas City Center
Sat 12:56:07 AM 39.3183 -88.0189 81° East 492 566 41,000  Level Kansas City Center
Sat 12:57:08 AM 39.3411 -87.8444 80° East 489 563 41,000  Level Kansas City Center
Sat 12:58:09 AM 39.3628 -87.6731 81° East 488 562 41,000  Level Indianapolis Center
Sat 12:59:10 AM 39.3864 -87.4842 81° East 488 562 41,000  Level Indianapolis Center
Sat 01:00:10 AM 39.4069 -87.3097 81° East 495 570 41,000  Level Indianapolis Center
Sat 01:01:11 AM 39.4292 -87.1356 81° East 493 567 41,000  Level Indianapolis Center
Sat 01:02:11 AM 39.4500 -86.9608 81° East 496 571 41,000  Level Indianapolis Center
Sat 01:03:12 AM 39.4706 -86.7861 81° East 495 570 41,000  Level Indianapolis Center
Sat 01:04:12 AM 39.4911 -86.6111 81° East 497 572 41,000  Level Indianapolis Center
Sat 01:05:13 AM 39.5119 -86.4364 81° East 497 572 41,000  Level Indianapolis Center
Sat 01:06:13 AM 39.5308 -86.2633 82° East 497 572 41,000  Level Indianapolis Center
Sat 01:07:14 AM 39.5503 -86.0906 82° East 496 571 41,000  Level Indianapolis Center
Sat 01:08:14 AM 39.5742 -85.8817 81° East 495 570 41,000  Level Indianapolis Center
Sat 01:09:15 AM 39.5908 -85.7058 83° East 495 570 41,000  Level Indianapolis Center
Sat 01:10:15 AM 39.6017 -85.5278 85° East 499 574 41,000  Level Indianapolis Center
Sat 01:11:16 AM 39.6147 -85.3514 84° East 497 572 41,000  Level Indianapolis Center
Sat 01:12:16 AM 39.6267 -85.1731 85° East 498 573 41,000  Level Indianapolis Center
Sat 01:13:17 AM 39.6381 -84.9939 85° East 500 575 41,000  Level Indianapolis Center
Sat 01:14:17 AM 39.6514 -84.8072 85° East 500 575 41,000  Level Indianapolis Center
Sat 01:15:18 AM 39.6633 -84.6256 85° East 501 577 41,000  Level Indianapolis Center
Sat 01:16:18 AM 39.6742 -84.4442 86° East 500 575 41,000  Level Indianapolis Center
Sat 01:17:18 AM 39.6842 -84.2619 86° East 502 578 41,000  Level Indianapolis Center
Sat 01:18:19 AM 39.6956 -84.0833 85° East 495 570 41,000  Level Indianapolis Center
Sat 01:19:19 AM 39.7061 -83.9028 86° East 497 572 41,000  Level Indianapolis Center
Sat 01:20:19 AM 39.7153 -83.7264 86° East 491 565 41,000  Level Indianapolis Center
Sat 01:21:20 AM 39.7247 -83.5508 86° East 491 565 41,000  Level Indianapolis Center
Sat 01:22:20 AM 39.7261 -83.3778 89° East 490 564 41,000  Level Indianapolis Center
Sat 01:23:21 AM 39.7189 -83.2019 93° East 489 563 41,000  Level Indianapolis Center
Sat 01:24:21 AM 39.7114 -83.0239 93° East 491 565 41,000  Level Indianapolis Center
Sat 01:25:21 AM 39.7047 -82.8475 93° East 488 562 41,000  Level Indianapolis Center
Sat 01:26:22 AM 39.6969 -82.6689 93° East 491 565 41,000  Level Indianapolis Center
Sat 01:27:22 AM 39.6881 -82.4897 94° East 492 566 41,000  Level Indianapolis Center
Sat 01:28:22 AM 39.6808 -82.3117 93° East 492 566 41,000  Level Indianapolis Center
Sat 01:29:23 AM 39.6717 -82.1294 94° East 499 574 41,000  Level Indianapolis Center
Sat 01:30:23 AM 39.6625 -81.9486 94° East 499 574 41,000  Level Indianapolis Center
Sat 01:31:23 AM 39.6539 -81.7669 93° East 500 575 41,000  Level Indianapolis Center
Sat 01:32:21 AM 39.6497 -81.6075 92° East 500 575 41,000  Level Cleveland Center
Sat 01:33:21 AM 39.6386 -81.4294 95° East 500 575 41,000  Level Cleveland Center
Sat 01:34:21 AM 39.6294 -81.2514 94° East 500 575 41,000  Level Cleveland Center
Sat 01:35:25 AM 39.6147 -81.0514 95° East 490 564 41,000  Level Indianapolis Center
Sat 01:36:25 AM 39.6036 -80.8739 95° East 492 566 41,000  Level Indianapolis Center
Sat 01:37:25 AM 39.5942 -80.6989 94° East 485 558 41,000  Level Indianapolis Center
Sat 01:38:26 AM 39.5825 -80.5233 95° East 488 562 41,000  Level Indianapolis Center
Sat 01:38:44 AM 39.5853 -80.4844 85° East 488 562 41,000  Level Washington Center
Sat 01:39:45 AM 39.5733 -80.3139 95° East 483 556 41,000  Level Washington Center
Sat 01:40:44 AM 39.5611 -80.1436 95° East 483 556 41,000  Level Washington Center
Sat 01:41:44 AM 39.5506 -79.9733 95° East 483 556 41,000  Level Washington Center
Sat 01:42:44 AM 39.5381 -79.8003 95° East 483 556 41,000 -600 Level Washington Center
Sat 01:43:44 AM 39.5272 -79.6275 95° East 483 556 39,800 -1,850 Descending Washington Center
Sat 01:44:44 AM 39.5142 -79.4600 96° East 483 556 37,300 -2,600 Descending Washington Center
Sat 01:45:44 AM 39.5031 -79.2817 95° East 483 556 34,600 -2,650 Descending Washington Center
Sat 01:46:44 AM 39.4875 -79.1061 96° East 489 563 32,000 -2,450 Descending Washington Center
Sat 01:47:44 AM 39.4736 -78.9361 96° East 481 554 29,700 -2,250 Descending Washington Center
Sat 01:48:44 AM 39.4614 -78.7717 95° East 468 539 27,500 -2,132 Descending Washington Center
Sat 01:49:45 AM 39.4489 -78.6069 96° East 463 533 25,400 -2,150 Descending Washington Center
Sat 01:50:44 AM 39.4342 -78.4425 97° East 463 533 23,200 -2,168 Descending Washington Center
Sat 01:51:44 AM 39.4214 -78.2728 96° East 458 527 21,100 -2,033 Descending Washington Center
Sat 01:52:45 AM 39.4081 -78.1219 96° East 437 503 19,100 -2,016 Descending Washington Center
Sat 01:53:46 AM 39.3942 -77.9764 97° East 424 488 17,000 -2,050 Descending Washington Center
Sat 01:54:45 AM 39.3867 -77.8311 94° East 406 467 15,000 -1,008 Descending Washington Center
Sat 01:55:45 AM 39.4036 -77.6947 81° East 393 452 15,000 -689 Level Washington Center
Sat 01:56:47 AM 39.4017 -77.5550 91° East 383 441 13,600 -2,236 Descending Washington Center
Sat 01:57:35 AM 39.3667 -77.4333 110° East 407 468 10,900 -1,889 Descending Potomac TRACON
Sat 01:58:35 AM 39.3167 -77.3167 119° Southeast 344 396 10,200 -1,289 Descending Potomac TRACON
Sat 01:59:36 AM 39.2833 -77.2167 113° Southeast 319 367 8,300 -1,785 Descending Potomac TRACON
Sat 02:00:36 AM 39.2500 -77.1167 113° Southeast 306 352 6,600 -1,750 Descending Potomac TRACON
Sat 02:01:36 AM 39.2167 -77.0167 113° Southeast 295 339 4,800 -1,736 Descending Potomac TRACON
Sat 02:02:37 AM 39.2000 -76.9167 102° East 267 307 3,100 -1,096 Descending Potomac TRACON
Sat 02:03:31 AM 39.1833 -76.8500 108° East 230 265 2,700 -750 Descending Potomac TRACON
Sat 02:04:37 AM 39.1833 -76.7833 90° East 176 203 1,600 -947 Descending Potomac TRACON
Sat 02:05:44 AM 39.1833 -76.7167 90° East 137 158 600 -896 Descending Potomac TRACON
Sat 02:07:00 AM 39.1667 -76.6667 142° Southeast  Level FlightAware Approximate
Sat 02:14:00 AM 39.1754 -76.6683 142° Southeast  Level Estimated
Sat 02:15:00 AM 39.1754 -76.6683 142° Southeast  Level Estimated
Sat 02:16:00 AM 39.1754 -76.6683 142° Southeast  Level Estimated
Sat 02:17:00 AM 39.1754 -76.6683 142° Southeast  Level Estimated

Login

Don't have an account? Register now (free) for customized features, flight alerts, and more!